Time;durP1;ratioP1;P1;durP2;ratioP2;P2;SDS_P1;SDS_P2;PMS_P1;PMS_P2;Temp;Humidity;BMP_temperature;BMP_pressure;BME280_temperature;BME280_humidity;BME280_pressure;Samples;Min_cycle;Max_cycle;Signal;HPM_P1;HPM_P2
2023/12/19 00:03:14;;;;;;;20.13;17.20;;;;;;;7.33;100.00;101987.69;6131463;28;20826;-69
2023/12/19 00:06:35;;;;;;;19.37;16.33;;;;;;;7.35;100.00;101985.78;6125415;28;20549;-69
2023/12/19 00:09:55;;;;;;;20.20;17.37;;;;;;;7.34;100.00;101966.16;6131814;28;20251;-69
2023/12/19 00:13:18;;;;;;;21.73;18.13;;;;;;;7.29;100.00;101965.56;6130443;28;20231;-70
2023/12/19 00:16:40;;;;;;;20.83;16.17;;;;;;;7.32;100.00;101972.56;6132514;28;20625;-71
2023/12/19 00:20:01;;;;;;;19.17;16.50;;;;;;;7.28;100.00;101984.41;6133284;28;20243;-69
2023/12/19 00:23:22;;;;;;;21.07;15.97;;;;;;;7.28;100.00;102006.72;6132111;28;20239;-69
2023/12/19 00:26:43;;;;;;;22.03;17.73;;;;;;;7.27;100.00;101996.97;6133244;28;20234;-69
2023/12/19 00:30:07;;;;;;;22.50;18.03;;;;;;;7.28;100.00;101956.63;6132433;28;20227;-69
2023/12/19 00:33:28;;;;;;;16.50;14.53;;;;;;;7.31;100.00;101963.66;6131084;28;20254;-69
2023/12/19 00:36:49;;;;;;;20.33;15.17;;;;;;;7.36;100.00;101969.63;6128482;28;20247;-69
2023/12/19 00:40:12;;;;;;;16.67;15.03;;;;;;;7.40;100.00;101971.16;6128980;28;20271;-70
2023/12/19 00:43:33;;;;;;;14.63;13.13;;;;;;;7.37;100.00;101968.66;6135009;28;20231;-70
2023/12/19 00:46:55;;;;;;;13.90;12.43;;;;;;;7.40;100.00;101954.19;6116292;28;20334;-69
2023/12/19 00:50:18;;;;;;;16.07;14.27;;;;;;;7.39;100.00;101964.06;6129814;28;20231;-70
2023/12/19 00:53:39;;;;;;;14.90;12.67;;;;;;;7.40;100.00;101941.66;6125435;28;20243;-68
2023/12/19 00:57:00;;;;;;;13.97;11.47;;;;;;;7.42;100.00;101931.69;6119506;28;20740;-68
2023/12/19 01:00:21;;;;;;;15.57;13.30;;;;;;;7.44;100.00;101928.91;6130725;28;20231;-69
2023/12/19 01:03:43;;;;;;;14.00;12.37;;;;;;;7.47;100.00;101931.44;6132127;28;20679;-69
2023/12/19 01:07:04;;;;;;;10.43;8.43;;;;;;;7.48;100.00;101943.88;6129981;28;20660;-69
2023/12/19 01:10:25;;;;;;;11.40;10.27;;;;;;;7.50;100.00;101940.16;6132415;28;20223;-69
2023/12/19 01:13:46;;;;;;;15.87;13.17;;;;;;;7.52;100.00;101954.34;6126117;28;20361;-69
2023/12/19 01:17:07;;;;;;;12.47;11.27;;;;;;;7.51;100.00;101941.88;6121778;28;20243;-69
2023/12/19 01:20:29;;;;;;;12.30;11.10;;;;;;;7.50;100.00;101929.44;6126299;28;20356;-69
2023/12/19 01:23:50;;;;;;;13.77;12.20;;;;;;;7.51;100.00;101947.25;6125058;28;20235;-69
2023/12/19 01:27:11;;;;;;;14.20;12.77;;;;;;;7.55;100.00;101950.63;6121782;28;20314;-69
2023/12/19 01:30:31;;;;;;;11.10;8.93;;;;;;;7.57;100.00;101970.19;6135547;28;20235;-68
2023/12/19 01:33:53;;;;;;;13.17;11.33;;;;;;;7.53;100.00;101945.31;6124684;28;20590;-68
2023/12/19 01:37:15;;;;;;;12.37;10.73;;;;;;;7.59;100.00;101939.63;6126213;28;21746;-69
2023/12/19 01:40:36;;;;;;;13.47;11.13;;;;;;;7.54;100.00;101946.19;6125588;28;20238;-69
2023/12/19 01:43:58;;;;;;;13.20;11.90;;;;;;;7.56;100.00;101934.44;6127712;28;20310;-68
2023/12/19 01:47:18;;;;;;;12.07;10.87;;;;;;;7.54;100.00;101940.84;6133047;28;20247;-69
2023/12/19 01:50:39;;;;;;;12.43;9.90;;;;;;;7.50;100.00;101913.34;6126326;28;20280;-69
2023/12/19 01:54:04;;;;;;;12.63;9.27;;;;;;;7.51;100.00;101893.59;6131540;28;20232;-68
2023/12/19 01:57:25;;;;;;;11.77;10.63;;;;;;;7.50;100.00;101909.78;6127805;28;20715;-69
2023/12/19 02:00:46;;;;;;;11.17;9.97;;;;;;;7.50;100.00;101888.31;6128057;28;20235;-69
2023/12/19 02:04:09;;;;;;;11.53;10.43;;;;;;;7.49;100.00;101898.19;6133587;28;20231;-69
2023/12/19 02:07:30;;;;;;;11.73;10.60;;;;;;;7.55;100.00;101905.84;6129133;28;20239;-69
2023/12/19 02:10:52;;;;;;;11.60;10.50;;;;;;;7.54;100.00;101904.16;6129822;28;20310;-68
2023/12/19 02:14:14;;;;;;;10.57;9.47;;;;;;;7.56;100.00;101883.44;6120418;28;20554;-69
2023/12/19 02:17:34;;;;;;;12.03;10.80;;;;;;;7.60;100.00;101878.75;6126173;28;20238;-69
2023/12/19 02:20:55;;;;;;;12.70;11.40;;;;;;;7.57;100.00;101874.44;6125334;28;20227;-69
2023/12/19 02:24:18;;;;;;;11.33;9.80;;;;;;;7.57;100.00;101887.84;6122945;28;21063;-69
2023/12/19 02:27:39;;;;;;;11.33;9.50;;;;;;;7.59;100.00;101869.88;6124911;28;20530;-69
2023/12/19 02:31:00;;;;;;;13.27;10.73;;;;;;;7.60;100.00;101887.69;6126073;28;20608;-69
2023/12/19 02:34:21;;;;;;;9.33;8.43;;;;;;;7.58;100.00;101894.09;6125216;28;20319;-69
2023/12/19 02:37:42;;;;;;;11.23;10.07;;;;;;;7.52;100.00;101894.44;6123035;28;20239;-69
2023/12/19 02:41:05;;;;;;;7.83;6.73;;;;;;;7.51;100.00;101884.69;6124154;28;20231;-69
2023/12/19 02:44:26;;;;;;;10.90;9.13;;;;;;;7.46;100.00;101874.22;6121218;28;20235;-70
2023/12/19 02:47:46;;;;;;;10.97;9.63;;;;;;;7.46;100.00;101855.47;6131443;28;20239;-69
2023/12/19 02:51:07;;;;;;;12.20;10.20;;;;;;;7.46;100.00;101857.25;6130213;28;20235;-69
2023/12/19 02:54:28;;;;;;;10.50;9.30;;;;;;;7.42;100.00;101847.69;6138850;28;20234;-69
2023/12/19 02:57:50;;;;;;;10.87;9.03;;;;;;;7.46;100.00;101876.91;6133618;28;20625;-69
2023/12/19 03:01:11;;;;;;;11.60;10.47;;;;;;;7.43;100.00;101847.56;6134782;28;20235;-68
2023/12/19 03:04:32;;;;;;;12.03;10.83;;;;;;;7.37;100.00;101855.13;6131549;28;20231;-69
2023/12/19 03:07:54;;;;;;;11.60;9.57;;;;;;;7.29;100.00;101852.91;6132101;28;20239;-69
2023/12/19 03:11:16;;;;;;;12.20;11.07;;;;;;;7.32;100.00;101842.00;6129704;28;20250;-69
2023/12/19 03:14:38;;;;;;;11.27;10.10;;;;;;;7.23;100.00;101831.81;6125270;28;20707;-69
2023/12/19 03:17:58;;;;;;;12.60;11.40;;;;;;;7.18;100.00;101842.81;6138006;28;20227;-69
2023/12/19 03:21:19;;;;;;;12.00;10.47;;;;;;;7.17;100.00;101834.88;6131487;28;20239;-69
2023/12/19 03:24:40;;;;;;;9.40;8.27;;;;;;;7.14;100.00;101848.44;6134010;28;20236;-70
2023/12/19 03:28:01;;;;;;;11.73;10.23;;;;;;;7.17;100.00;101841.13;6131453;28;20330;-69
2023/12/19 03:31:23;;;;;;;10.93;9.53;;;;;;;7.12;100.00;101837.81;6123006;28;20605;-69
2023/12/19 03:34:44;;;;;;;9.97;8.57;;;;;;;7.08;100.00;101827.38;6140568;28;20231;-69
2023/12/19 03:38:05;;;;;;;10.33;9.23;;;;;;;7.08;100.00;101836.28;6132346;28;20243;-69
2023/12/19 03:41:26;;;;;;;9.57;8.63;;;;;;;7.13;100.00;101846.75;6126185;28;20538;-69
2023/12/19 03:44:47;;;;;;;8.83;7.27;;;;;;;7.09;100.00;101824.59;6133710;28;20231;-69
2023/12/19 03:48:09;;;;;;;8.83;7.53;;;;;;;7.14;100.00;101818.97;6133444;28;20618;-70
2023/12/19 03:51:30;;;;;;;9.93;8.97;;;;;;;7.17;100.00;101824.16;6131866;28;20235;-70
2023/12/19 03:54:51;;;;;;;7.43;6.73;;;;;;;7.16;100.00;101827.78;6126552;28;20232;-71
2023/12/19 03:58:12;;;;;;;8.63;7.63;;;;;;;7.20;100.00;101826.63;6129345;28;20240;-70
2023/12/19 04:01:33;;;;;;;9.70;8.90;;;;;;;7.18;100.00;101815.13;6130388;28;20326;-70
2023/12/19 04:04:55;;;;;;;6.83;6.13;;;;;;;7.15;100.00;101808.13;6126921;28;20231;-69
2023/12/19 04:08:16;;;;;;;7.60;6.93;;;;;;;7.17;100.00;101822.34;6130517;28;20239;-69
2023/12/19 04:11:37;;;;;;;7.93;7.23;;;;;;;7.12;100.00;101797.59;6133550;28;20238;-69
2023/12/19 04:14:58;;;;;;;7.57;6.90;;;;;;;7.12;100.00;101788.69;6131945;28;20243;-69
2023/12/19 04:18:19;;;;;;;5.93;5.40;;;;;;;7.10;100.00;101786.13;6130303;28;20227;-69
2023/12/19 04:21:42;;;;;;;6.20;5.67;;;;;;;7.06;100.00;101781.91;6134734;28;20218;-70
2023/12/19 04:25:03;;;;;;;8.40;7.57;;;;;;;7.04;100.00;101785.63;6134107;28;20250;-70
2023/12/19 04:28:24;;;;;;;6.30;5.70;;;;;;;7.03;100.00;101787.41;6132150;28;20231;-70
2023/12/19 04:31:45;;;;;;;6.87;6.27;;;;;;;7.00;100.00;101798.34;6125379;28;20227;-69
2023/12/19 04:35:07;;;;;;;6.47;5.87;;;;;;;7.02;100.00;101785.72;6126320;28;20262;-70
2023/12/19 04:38:29;;;;;;;7.13;6.53;;;;;;;7.03;100.00;101767.81;6136108;28;20250;-70
2023/12/19 04:41:50;;;;;;;6.77;6.20;;;;;;;7.02;100.00;101769.63;6126196;28;20235;-69
2023/12/19 04:45:11;;;;;;;7.27;6.53;;;;;;;7.01;100.00;101762.53;6130482;28;20246;-69
2023/12/19 04:48:33;;;;;;;6.53;5.87;;;;;;;7.01;100.00;101759.84;6132017;28;20227;-70
2023/12/19 04:51:53;;;;;;;6.60;6.00;;;;;;;7.02;100.00;101768.75;6125062;28;20529;-69
2023/12/19 04:55:16;;;;;;;6.50;5.90;;;;;;;7.10;100.00;101759.31;6123891;28;20235;-70
2023/12/19 04:58:37;;;;;;;6.27;5.60;;;;;;;7.10;100.00;101767.34;6130286;28;20235;-70
2023/12/19 05:01:58;;;;;;;6.23;5.70;;;;;;;7.08;100.00;101771.06;6133577;28;20227;-70
2023/12/19 05:05:19;;;;;;;7.53;6.17;;;;;;;7.10;100.00;101763.78;6132490;28;20707;-69
2023/12/19 05:08:40;;;;;;;7.37;6.53;;;;;;;7.11;100.00;101760.19;6134423;28;20223;-69
2023/12/19 05:12:02;;;;;;;7.67;6.97;;;;;;;7.08;100.00;101758.53;6129233;28;20228;-69
2023/12/19 05:15:22;;;;;;;6.40;5.87;;;;;;;7.11;100.00;101757.50;6126526;28;20227;-69
2023/12/19 05:18:45;;;;;;;8.27;7.47;;;;;;;7.07;100.00;101745.22;6143463;28;20235;-70
2023/12/19 05:22:05;;;;;;;7.13;6.53;;;;;;;7.10;100.00;101731.63;6128767;28;20846;-69
2023/12/19 05:25:26;;;;;;;6.37;5.57;;;;;;;7.04;100.00;101732.00;6128642;28;20239;-70
2023/12/19 05:28:50;;;;;;;6.40;5.37;;;;;;;7.00;100.00;101733.13;6133613;28;20231;-70
2023/12/19 05:32:11;;;;;;;7.23;6.63;;;;;;;6.98;100.00;101724.34;6134473;28;20242;-68
2023/12/19 05:35:32;;;;;;;6.43;5.90;;;;;;;7.00;100.00;101714.38;6126085;28;20234;-70
2023/12/19 05:38:53;;;;;;;6.93;6.27;;;;;;;7.05;100.00;101723.00;6128806;28;20327;-68
2023/12/19 05:42:14;;;;;;;4.20;3.47;;;;;;;6.98;100.00;101730.56;6132552;28;20242;-69
2023/12/19 05:45:36;;;;;;;5.13;4.63;;;;;;;7.00;100.00;101722.41;6131362;28;20317;-68
2023/12/19 05:48:57;;;;;;;5.97;5.43;;;;;;;6.99;100.00;101728.72;6131335;28;20270;-69
2023/12/19 05:52:18;;;;;;;4.30;3.90;;;;;;;6.94;100.00;101744.22;6135465;28;20238;-69
2023/12/19 05:55:39;;;;;;;3.97;3.63;;;;;;;6.98;100.00;101735.06;6138963;28;20238;-69
2023/12/19 05:59:00;;;;;;;5.70;5.13;;;;;;;6.99;100.00;101748.34;6137521;28;20234;-69
2023/12/19 06:02:23;;;;;;;4.13;3.27;;;;;;;6.99;100.00;101739.44;6126840;28;20286;-69
2023/12/19 06:05:43;;;;;;;4.07;3.63;;;;;;;7.00;100.00;101734.00;6132386;28;20250;-69
2023/12/19 06:09:05;;;;;;;4.70;4.30;;;;;;;7.02;100.00;101729.41;6134679;28;20231;-69
2023/12/19 06:12:26;;;;;;;4.10;3.83;;;;;;;6.98;100.00;101724.34;6131884;28;20223;-69
2023/12/19 06:15:47;;;;;;;4.47;4.07;;;;;;;6.98;100.00;101716.28;6136278;28;20262;-68
2023/12/19 06:19:09;;;;;;;3.10;2.90;;;;;;;6.99;100.00;101718.00;6124874;28;20238;-69
2023/12/19 06:22:30;;;;;;;2.63;2.43;;;;;;;7.00;100.00;101717.94;6133348;28;20774;-70
2023/12/19 06:25:51;;;;;;;3.50;3.27;;;;;;;7.05;100.00;101709.63;6136757;28;20247;-70
2023/12/19 06:29:11;;;;;;;3.13;2.93;;;;;;;6.99;100.00;101716.19;6132708;28;20614;-70
2023/12/19 06:32:32;;;;;;;3.10;2.80;;;;;;;6.98;100.00;101705.56;6131113;28;20243;-70
2023/12/19 06:35:54;;;;;;;3.37;3.07;;;;;;;7.00;100.00;101696.47;6128995;28;21197;-71
2023/12/19 06:39:16;;;;;;;3.30;2.93;;;;;;;7.03;100.00;101703.47;6127813;28;20310;-70
2023/12/19 06:42:36;;;;;;;2.77;2.50;;;;;;;6.96;100.00;101726.25;6126591;28;20588;-70
2023/12/19 06:45:57;;;;;;;2.80;2.60;;;;;;;7.00;100.00;101719.75;6136657;28;20231;-70
2023/12/19 06:49:18;;;;;;;4.33;2.63;;;;;;;6.99;100.00;101705.47;6130187;28;20323;-70
2023/12/19 06:52:40;;;;;;;2.93;2.73;;;;;;;6.99;100.00;101716.19;6136904;28;20609;-69
2023/12/19 06:56:02;;;;;;;2.37;2.17;;;;;;;7.04;100.00;101710.56;6135168;28;20231;-70
2023/12/19 06:59:24;;;;;;;1.67;1.57;;;;;;;6.95;100.00;101725.38;6133999;28;20254;-69
2023/12/19 07:02:45;;;;;;;1.77;1.60;;;;;;;6.96;100.00;101726.25;6131126;28;20310;-70
2023/12/19 07:06:06;;;;;;;1.60;1.50;;;;;;;6.99;100.00;101726.03;6128936;28;20227;-70
2023/12/19 07:09:28;;;;;;;2.70;2.50;;;;;;;6.98;100.00;101711.81;6139922;28;20239;-70
2023/12/19 07:12:49;;;;;;;1.70;1.60;;;;;;;6.98;100.00;101706.44;6135381;28;20251;-69
2023/12/19 07:16:14;;;;;;;1.93;1.83;;;;;;;6.95;100.00;101711.97;6136218;28;20239;-70
2023/12/19 07:19:35;;;;;;;2.43;2.23;;;;;;;6.92;100.00;101698.78;6132500;28;20231;-70
2023/12/19 07:22:56;;;;;;;2.80;2.57;;;;;;;6.95;100.00;101693.22;6130658;28;20307;-70
2023/12/19 07:26:26;;;;;;;4.67;1.90;;;;;;;6.93;100.00;101679.03;6136469;28;20255;-70
2023/12/19 07:29:48;;;;;;;2.30;1.40;;;;;;;6.96;100.00;101678.88;6135032;28;20502;-69
2023/12/19 07:33:09;;;;;;;1.97;1.87;;;;;;;6.96;100.00;101676.19;6129955;28;20780;-69
2023/12/19 07:36:30;;;;;;;1.80;1.70;;;;;;;6.96;100.00;101668.16;6130627;28;20239;-69
2023/12/19 07:39:51;;;;;;;1.87;1.77;;;;;;;6.96;100.00;101665.47;6145594;28;20243;-70
2023/12/19 07:43:13;;;;;;;1.80;1.70;;;;;;;6.94;100.00;101655.78;6133199;28;20243;-70
2023/12/19 07:46:34;;;;;;;1.97;1.60;;;;;;;6.94;100.00;101643.25;6138518;28;20235;-69
2023/12/19 07:49:55;;;;;;;2.20;1.87;;;;;;;6.99;100.00;101641.13;6143359;28;20231;-69
2023/12/19 07:53:16;;;;;;;1.60;1.50;;;;;;;7.08;100.00;101645.06;6134948;28;20238;-70
2023/12/19 07:56:41;;;;;;;2.83;1.73;;;;;;;7.01;100.00;101624.94;6130057;28;20235;-69
2023/12/19 08:00:04;;;;;;;1.47;1.37;;;;;;;7.01;100.00;101639.22;6129491;28;20239;-69
2023/12/19 08:03:33;;;;;;;3.67;1.83;;;;;;;7.02;100.00;101646.31;6127104;28;20534;-70
2023/12/19 08:06:54;;;;;;;1.30;1.20;;;;;;;7.08;100.00;101629.00;6133367;28;20235;-69
2023/12/19 08:10:16;;;;;;;1.60;1.50;;;;;;;7.06;100.00;101639.81;6133725;28;20235;-69
2023/12/19 08:13:37;;;;;;;1.50;1.40;;;;;;;7.06;100.00;101630.91;6128309;28;20231;-70
2023/12/19 08:17:01;;;;;;;1.83;1.73;;;;;;;7.03;100.00;101631.09;6130661;28;20247;-70
2023/12/19 08:20:22;;;;;;;2.07;1.13;;;;;;;6.99;100.00;101616.13;6130527;28;20231;-70
2023/12/19 08:23:45;;;;;;;1.57;1.47;;;;;;;6.95;100.00;101622.66;6131061;28;20235;-70
2023/12/19 08:27:06;;;;;;;1.60;1.50;;;;;;;7.00;100.00;101613.38;6131052;28;20231;-70
2023/12/19 08:30:27;;;;;;;1.10;1.10;;;;;;;6.97;100.00;101601.97;6129510;28;20231;-70
2023/12/19 08:33:49;;;;;;;0.80;0.80;;;;;;;6.91;100.00;101622.00;6127282;28;20235;-70
2023/12/19 08:37:10;;;;;;;1.80;1.70;;;;;;;6.88;100.00;101619.50;6138083;28;20263;-70
2023/12/19 08:40:31;;;;;;;1.83;1.30;;;;;;;6.91;100.00;101611.28;6133554;28;20235;-72
2023/12/19 08:43:53;;;;;;;1.17;0.83;;;;;;;6.98;100.00;101609.06;6144014;28;20219;-74
2023/12/19 08:47:14;;;;;;;2.97;1.23;;;;;;;7.40;100.00;101609.06;6127161;28;20749;-86
2023/12/19 08:50:36;;;;;;;1.60;1.17;;;;;;;7.43;100.00;101606.16;6132681;28;20231;-77
2023/12/19 08:53:56;;;;;;;4.67;1.87;;;;;;;7.62;100.00;101612.06;6132935;28;20231;-75
2023/12/19 08:57:17;;;;;;;4.60;2.03;;;;;;;7.46;100.00;101605.13;6138374;28;20243;-73
2023/12/19 09:00:38;;;;;;;1.43;1.00;;;;;;;7.33;100.00;101615.75;6129565;28;20867;-75
2023/12/19 09:04:00;;;;;;;1.30;1.20;;;;;;;7.41;100.00;101607.22;6133573;28;20504;-75
2023/12/19 09:07:22;;;;;;;3.03;1.30;;;;;;;7.52;100.00;101602.91;6131044;28;20239;-75
2023/12/19 09:10:43;;;;;;;0.97;0.83;;;;;;;7.48;100.00;101609.44;6125878;28;20245;-73
2023/12/19 09:14:04;;;;;;;1.20;1.13;;;;;;;7.39;100.00;101593.03;6127397;28;20235;-81
2023/12/19 09:17:25;;;;;;;1.43;0.90;;;;;;;7.41;100.00;101575.03;6118982;28;20227;-79
2023/12/19 09:20:45;;;;;;;2.17;1.10;;;;;;;7.94;100.00;101596.56;6134662;28;20240;-72
2023/12/19 09:24:08;;;;;;;1.00;0.97;;;;;;;7.45;100.00;101598.03;6136600;28;20234;-79
2023/12/19 09:27:28;;;;;;;1.50;1.40;;;;;;;7.08;100.00;101583.41;6130519;28;20227;-71
2023/12/19 09:30:49;;;;;;;1.00;1.00;;;;;;;6.99;100.00;101586.66;6135671;28;20234;-71
2023/12/19 09:34:10;;;;;;;1.90;1.57;;;;;;;7.05;100.00;101576.41;6138284;28;20664;-73
2023/12/19 09:37:31;;;;;;;1.10;1.00;;;;;;;7.02;100.00;101583.81;6132058;28;20231;-71
2023/12/19 09:40:53;;;;;;;1.03;0.93;;;;;;;6.98;100.00;101577.78;6132020;28;20224;-70
2023/12/19 09:44:15;;;;;;;1.70;1.40;;;;;;;7.03;100.00;101572.13;6132656;28;20234;-70
2023/12/19 09:47:40;;;;;;;2.27;2.07;;;;;;;7.04;100.00;101558.63;6129723;28;20227;-70
2023/12/19 09:51:02;;;;;;;0.70;0.67;;;;;;;7.01;100.00;101555.25;6133871;28;20231;-70
2023/12/19 09:54:24;;;;;;;1.10;1.07;;;;;;;7.05;100.00;101570.22;6145874;28;20227;-70
2023/12/19 09:57:47;;;;;;;0.90;0.90;;;;;;;7.12;100.00;101556.31;6136867;28;20238;-70
2023/12/19 10:01:08;;;;;;;0.83;0.83;;;;;;;7.04;100.00;101555.94;6136481;28;20243;-70
2023/12/19 10:04:29;;;;;;;1.20;1.20;;;;;;;7.03;100.00;101538.13;6137585;28;20321;-69
2023/12/19 10:07:50;;;;;;;0.73;0.73;;;;;;;7.06;100.00;101539.75;6132043;28;20249;-69
2023/12/19 10:11:16;;;;;;;1.07;0.97;;;;;;;7.21;100.00;101501.25;6126948;28;20232;-72
2023/12/19 10:14:38;;;;;;;2.20;0.90;;;;;;;7.43;100.00;101492.63;6130998;28;20259;-70
2023/12/19 10:18:04;;;;;;;1.50;1.30;;;;;;;7.49;100.00;101485.06;6151103;28;20254;-75
2023/12/19 10:21:28;;;;;;;1.40;1.10;;;;;;;7.51;100.00;101484.97;6134551;28;20330;-77
2023/12/19 10:24:49;;;;;;;1.60;1.10;;;;;;;7.45;100.00;101488.06;6139329;28;20655;-76
2023/12/19 10:28:10;;;;;;;1.37;1.27;;;;;;;7.66;100.00;101484.78;6140192;28;20514;-72
2023/12/19 10:31:34;;;;;;;1.40;1.17;;;;;;;7.63;100.00;101484.16;6139740;28;20258;-74
2023/12/19 10:34:56;;;;;;;1.33;1.00;;;;;;;7.71;100.00;101473.75;6133862;28;20235;-75
2023/12/19 10:38:17;;;;;;;1.60;1.50;;;;;;;7.56;100.00;101491.75;6136895;28;20262;-77
2023/12/19 10:41:38;;;;;;;1.03;1.03;;;;;;;7.54;100.00;101490.13;6139855;28;20232;-78
2023/12/19 10:45:00;;;;;;;1.33;1.23;;;;;;;7.64;100.00;101469.75;6137742;28;20227;-79
2023/12/19 10:48:23;;;;;;;1.63;1.53;;;;;;;7.72;100.00;101446.81;6143864;28;20617;-76
2023/12/19 10:51:50;;;;;;;1.80;1.00;;;;;;;7.68;100.00;101447.13;6137313;28;20266;-73
2023/12/19 10:55:18;;;;;;;1.13;1.10;;;;;;;7.63;100.00;101444.78;6151427;28;20513;-76
2023/12/19 10:58:43;;;;;;;1.40;1.30;;;;;;;7.51;100.00;101442.06;6142582;28;20223;-71
2023/12/19 11:02:12;;;;;;;1.30;1.20;;;;;;;7.74;100.00;101428.78;6139292;28;20231;-77
2023/12/19 11:05:41;;;;;;;1.33;1.33;;;;;;;7.62;100.00;101410.84;6154559;28;20256;-78
2023/12/19 11:09:05;;;;;;;1.50;1.40;;;;;;;7.68;100.00;101409.56;6142134;28;20321;-76
2023/12/19 11:12:27;;;;;;;7.03;4.57;;;;;;;7.62;100.00;101393.88;6142175;28;20231;-74
2023/12/19 11:15:53;;;;;;;2.23;1.90;;;;;;;7.61;100.00;101398.41;6136652;28;20239;-79
2023/12/19 11:19:20;;;;;;;2.03;1.83;;;;;;;7.75;100.00;101406.38;6135789;28;20243;-78
2023/12/19 11:22:57;;;;;;;2.90;2.67;;;;;;;7.91;100.00;101403.47;6133060;28;20270;-77
2023/12/19 11:26:24;;;;;;;1.60;1.50;;;;;;;7.88;100.00;101382.22;6152153;28;20235;-77
2023/12/19 11:29:46;;;;;;;2.17;1.80;;;;;;;7.77;100.00;101400.88;6152120;28;20227;-72
2023/12/19 11:33:11;;;;;;;1.87;1.70;;;;;;;7.73;100.00;101380.59;6140276;28;20261;-82
2023/12/19 11:36:32;;;;;;;2.80;2.60;;;;;;;7.69;100.00;101384.47;6138484;28;20235;-73
2023/12/19 11:39:54;;;;;;;1.90;1.80;;;;;;;7.83;100.00;101373.63;6136916;28;20637;-76
2023/12/19 11:43:48;;;;;;;2.20;2.00;;;;;;;7.89;100.00;101387.47;6145096;28;20318;-78
2023/12/19 11:47:16;;;;;;;2.30;2.10;;;;;;;7.79;100.00;101370.31;6136867;28;20231;-72
2023/12/19 11:50:46;;;;;;;3.20;3.00;;;;;;;7.92;100.00;101364.94;6129555;28;20532;-73
2023/12/19 11:54:10;;;;;;;2.67;2.47;;;;;;;7.91;100.00;101357.84;6141921;28;20227;-80
2023/12/19 11:57:33;;;;;;;3.17;2.10;;;;;;;7.87;100.00;101354.50;6145169;28;20267;-79
2023/12/19 12:00:58;;;;;;;3.27;2.97;;;;;;;7.87;100.00;101359.88;6134711;28;20235;-79
2023/12/19 12:04:20;;;;;;;4.07;2.83;;;;;;;7.79;100.00;101338.09;6154289;28;20228;-78
2023/12/19 12:07:42;;;;;;;3.30;3.03;;;;;;;7.76;100.00;101332.94;6134704;28;20243;-78
2023/12/19 12:11:05;;;;;;;5.37;4.57;;;;;;;7.95;100.00;101335.19;6148542;28;20327;-80
2023/12/19 12:14:28;;;;;;;2.83;2.63;;;;;;;7.97;100.00;101326.06;6136259;28;20235;-71
2023/12/19 12:17:49;;;;;;;2.73;2.53;;;;;;;7.97;100.00;101314.44;6139586;28;20235;-77
2023/12/19 12:21:11;;;;;;;2.40;2.20;;;;;;;8.01;100.00;101306.06;6139471;28;20227;-73
2023/12/19 12:24:31;;;;;;;3.77;3.47;;;;;;;7.88;100.00;101304.38;6150019;28;20231;-69
2023/12/19 12:27:55;;;;;;;3.20;2.97;;;;;;;7.69;100.00;101291.41;6133361;28;20223;-69
2023/12/19 12:31:17;;;;;;;4.87;3.17;;;;;;;7.68;100.00;101295.03;6124060;28;20322;-70
2023/12/19 12:34:38;;;;;;;3.23;2.93;;;;;;;7.72;100.00;101283.13;6129402;28;20238;-69
2023/12/19 12:38:00;;;;;;;3.10;2.90;;;;;;;7.68;100.00;101278.94;6125887;28;20348;-69
2023/12/19 12:41:22;;;;;;;3.27;2.97;;;;;;;7.72;100.00;101285.81;6138867;28;20230;-69
2023/12/19 12:44:42;;;;;;;4.90;3.80;;;;;;;7.68;100.00;101280.75;6131263;28;20234;-70
2023/12/19 12:48:13;;;;;;;4.27;3.97;;;;;;;7.81;100.00;101277.13;6135158;28;20235;-70
2023/12/19 12:51:36;;;;;;;3.37;3.07;;;;;;;7.73;100.00;101276.81;6137869;28;20230;-70
2023/12/19 12:55:00;;;;;;;4.03;3.73;;;;;;;7.68;100.00;101270.91;6140378;28;20650;-70
2023/12/19 12:58:21;;;;;;;3.27;3.07;;;;;;;7.73;100.00;101268.75;6129620;28;20235;-70
2023/12/19 13:01:44;;;;;;;3.90;3.60;;;;;;;7.69;100.00;101269.06;6144695;28;20517;-69
2023/12/19 13:05:07;;;;;;;3.57;3.27;;;;;;;7.67;100.00;101262.97;6138831;28;20247;-69
2023/12/19 13:08:29;;;;;;;4.33;4.03;;;;;;;7.68;100.00;101246.75;6136636;28;20357;-70
2023/12/19 13:11:51;;;;;;;3.47;3.17;;;;;;;7.76;100.00;101256.94;6140393;28;20227;-70
2023/12/19 13:15:13;;;;;;;3.90;3.60;;;;;;;7.71;100.00;101241.19;6134740;28;20254;-69
2023/12/19 13:18:34;;;;;;;3.70;3.23;;;;;;;7.76;100.00;101236.31;6130335;28;20238;-69
2023/12/19 13:21:56;;;;;;;4.23;3.43;;;;;;;7.78;100.00;101239.75;6136698;28;20228;-70
2023/12/19 13:25:17;;;;;;;4.13;3.83;;;;;;;7.74;100.00;101238.25;6138226;28;20247;-69
2023/12/19 13:28:39;;;;;;;3.43;3.23;;;;;;;7.75;100.00;101236.44;6135582;28;20231;-69
2023/12/19 13:32:00;;;;;;;3.37;3.17;;;;;;;7.71;100.00;101232.25;6136403;28;20606;-70
2023/12/19 13:35:21;;;;;;;3.37;3.13;;;;;;;7.71;100.00;101235.81;6138489;28;20239;-70
2023/12/19 13:38:43;;;;;;;2.73;2.53;;;;;;;7.73;100.00;101233.00;6130346;28;20616;-70
2023/12/19 13:42:05;;;;;;;2.93;2.73;;;;;;;7.71;100.00;101235.81;6133076;28;20267;-69
2023/12/19 13:45:27;;;;;;;2.60;2.40;;;;;;;7.74;100.00;101224.00;6135114;28;20235;-70
2023/12/19 13:48:48;;;;;;;2.80;2.60;;;;;;;7.75;100.00;101225.72;6122729;28;20234;-70
2023/12/19 13:52:08;;;;;;;2.67;2.47;;;;;;;7.74;100.00;101232.06;6147112;28;20235;-70
2023/12/19 13:55:31;;;;;;;2.27;2.17;;;;;;;7.75;100.00;101221.19;6128073;28;20234;-69
2023/12/19 13:58:52;;;;;;;3.27;2.37;;;;;;;7.72;100.00;101223.22;6124921;28;20240;-69
2023/12/19 14:02:17;;;;;;;2.27;2.07;;;;;;;7.83;100.00;101228.69;6132067;28;20239;-69
2023/12/19 14:05:38;;;;;;;2.67;2.47;;;;;;;7.77;100.00;101208.53;6130595;28;20247;-69
2023/12/19 14:08:59;;;;;;;2.13;2.03;;;;;;;7.74;100.00;101207.91;6137487;28;20314;-70
2023/12/19 14:12:22;;;;;;;2.03;1.87;;;;;;;7.82;100.00;101209.03;6130011;28;20326;-70
2023/12/19 14:15:43;;;;;;;1.63;1.53;;;;;;;7.82;100.00;101201.00;6132412;28;20296;-70
2023/12/19 14:19:04;;;;;;;2.37;1.97;;;;;;;7.80;100.00;101207.47;6134446;28;20247;-69
2023/12/19 14:22:26;;;;;;;2.00;1.90;;;;;;;7.81;100.00;101191.25;6135793;28;20562;-70
2023/12/19 14:25:47;;;;;;;2.23;2.03;;;;;;;7.76;100.00;101188.00;6143247;28;20680;-70
2023/12/19 14:29:09;;;;;;;2.67;2.47;;;;;;;7.81;100.00;101220.75;6130236;28;20983;-70
2023/12/19 14:32:29;;;;;;;3.10;2.80;;;;;;;7.83;100.00;101209.91;6130957;28;20633;-69
2023/12/19 14:35:51;;;;;;;2.77;2.30;;;;;;;7.84;100.00;101192.84;6128302;28;20227;-69
2023/12/19 14:39:12;;;;;;;2.53;2.07;;;;;;;7.88;100.00;101210.44;6133342;28;20236;-69
2023/12/19 14:42:32;;;;;;;2.33;2.13;;;;;;;7.85;100.00;101210.66;6129785;28;20372;-69
2023/12/19 14:45:55;;;;;;;2.40;2.20;;;;;;;7.87;100.00;101193.47;6131516;28;20235;-69
2023/12/19 14:49:16;;;;;;;2.03;1.93;;;;;;;7.89;100.00;101186.16;6122644;28;20322;-73
2023/12/19 14:52:37;;;;;;;2.63;2.43;;;;;;;7.95;100.00;101177.66;6126556;28;20227;-70
2023/12/19 14:55:58;;;;;;;2.30;2.13;;;;;;;7.96;100.00;101176.72;6124525;28;20610;-67
2023/12/19 14:59:19;;;;;;;3.07;2.87;;;;;;;7.96;100.00;101179.41;6133564;28;20641;-69
2023/12/19 15:02:41;;;;;;;1.97;1.87;;;;;;;7.97;100.00;101173.03;6127658;28;20239;-70
2023/12/19 15:06:02;;;;;;;2.53;2.33;;;;;;;8.05;100.00;101151.03;6126698;28;20556;-68
2023/12/19 15:09:23;;;;;;;3.20;2.90;;;;;;;8.01;100.00;101179.03;6127095;28;20239;-69
2023/12/19 15:12:44;;;;;;;2.30;2.20;;;;;;;8.49;100.00;101182.66;6130112;28;20238;-78
2023/12/19 15:16:06;;;;;;;3.50;3.08;;;;;;;8.45;100.00;101184.69;6128622;28;20745;-72
2023/12/19 15:19:28;;;;;;;3.03;2.83;;;;;;;8.24;100.00;101178.19;6122025;28;20614;-69
2023/12/19 15:22:49;;;;;;;3.80;3.60;;;;;;;8.13;100.00;101169.25;6126139;28;20251;-69
2023/12/19 15:26:10;;;;;;;3.50;2.83;;;;;;;8.12;100.00;101162.13;6130009;28;20718;-68
2023/12/19 15:29:31;;;;;;;2.37;2.27;;;;;;;8.11;100.00;101164.00;6129154;28;20234;-68
2023/12/19 15:32:52;;;;;;;4.07;2.97;;;;;;;8.11;100.00;101166.66;6125756;28;20306;-69
2023/12/19 15:36:18;;;;;;;3.27;2.97;;;;;;;8.11;100.00;101158.63;6142749;28;20243;-69